KCKV/CKV METAR and TAF weather

Enter ICAO airport designator
Station Type Date Time Source
KCKV METAR 2022/05/24 10:52 UTC NOAA

KCKV 241052Z AUTO 12005KT 6SM BR OVC007 16/13 A3009 RMK AO2 SLP187 T01560133


Station Type Date Time Source
KCKV Decoded METAR 2022/05/24 10:52 UTC NOAA

CLARKSVILLE OUTLAW FIELD, TN, United States (KCKV) 36-37N 87-25W 165M
May 24, 2022 - 06:52 AM EDT / 2022.05.24 1052 UTC
Wind: from the ESE (120 degrees) at 6 MPH (5 KT):0
Visibility: 6 mile(s):0
Sky conditions: overcast
Weather: mist
Temperature: 60.1 F (15.6 C)
Dew Point: 55.9 F (13.3 C)
Relative Humidity: 86%
Pressure (altimeter): 30.09 in. Hg (1018 hPa)
ob: KCKV 241052Z AUTO 12005KT 6SM BR OVC007 16/13 A3009 RMK AO2 SLP187 T01560133
cycle: 11

Station Type Date Time Source
KCKV TAF 2022/05/24 12:28 UTC NOAA

TAF KCKV 241126Z 2412/2512 09005KT P6SM OVC007
FM241600 13007KT P6SM BKN008 OVC015
FM250000 13005KT P6SM VCSH BKN025 OVC050
FM250200 14005KT P6SM -SHRA BKN050 OVC120

Example: see airport list